Time;durP1;ratioP1;P1;durP2;ratioP2;P2;SDS_P1;SDS_P2;PMS_P1;PMS_P2;Temp;Humidity;BMP_temperature;BMP_pressure;BME280_temperature;BME280_humidity;BME280_pressure;Samples;Min_cycle;Max_cycle;Signal;HPM_P1;HPM_P2
2023/01/28 00:01:10;;;;;;;;;;;;;;;;;;4390646;32;65832;-61
2023/01/28 00:03:56;;;;;;;8.95;5.65;;;;;;;;;;4391707;32;59866;-64
2023/01/28 00:06:44;;;;;;;9.50;5.78;;;;;;;;;;4389798;32;70166;-60
2023/01/28 00:09:31;;;;;;;9.18;5.70;;;;;;;;;;4382973;32;69097;-62
2023/01/28 00:12:17;;;;;;;8.95;5.70;;;;;;;;;;4393485;32;66614;-60
2023/01/28 00:15:05;;;;;;;8.52;5.50;;;;;;;;;;4384145;32;60361;-60
2023/01/28 00:17:51;;;;;;;7.95;5.20;;;;;;;;;;4382453;32;69721;-61
2023/01/28 00:20:38;;;;;;;10.10;6.18;;;;;;;;;;4371290;32;69104;-61
2023/01/28 00:23:26;;;;;;;9.57;6.30;;;;;;;;;;4381913;32;68765;-61
2023/01/28 00:26:14;;;;;;;9.65;6.18;;;;;;;;;;4371768;32;71670;-61
2023/01/28 00:29:02;;;;;;;11.23;5.80;;;;;;;;;;4371145;32;65669;-60
2023/01/28 00:31:49;;;;;;;9.57;5.85;;;;;;;;;;4382348;32;67769;-63
2023/01/28 00:34:35;;;;;;;8.73;5.80;;;;;;;;;;4371011;32;59707;-61
2023/01/28 00:37:26;;;;;;;11.40;6.10;;;;;;;;;;4381748;32;71028;-61
2023/01/28 00:40:13;;;;;;;9.40;5.85;;;;;;;;;;4382231;32;65960;-62
2023/01/28 00:43:00;;;;;;;9.85;6.35;;;;;;;;;;4371167;32;67928;-61
2023/01/28 00:45:47;;;;;;;10.85;6.25;;;;;;;;;;4382530;32;60176;-61
2023/01/28 00:51:21;;;;;;;9.63;5.82;;;;;;;;;;3847701;37;43489;-61
2023/01/28 00:54:11;;;;;;;9.55;6.20;;;;;;;;;;4383133;32;60891;-61
2023/01/28 00:56:58;;;;;;;9.13;6.18;;;;;;;;;;4394958;32;70514;-62
2023/01/28 00:59:45;;;;;;;10.20;6.37;;;;;;;;;;4405380;32;69551;-61
2023/01/28 01:02:31;;;;;;;10.57;6.72;;;;;;;;;;4395911;32;66863;-62
2023/01/28 01:05:18;;;;;;;;;;;;;;;;;;4393987;32;70599;-61
2023/01/28 01:08:04;;;;;;;9.60;5.80;;;;;;;;;;4394846;32;66086;-61
2023/01/28 01:10:52;;;;;;;9.93;6.45;;;;;;;;;;4393537;32;66755;-61
2023/01/28 01:13:39;;;;;;;11.00;6.62;;;;;;;;;;4394454;32;59337;-62
2023/01/28 01:16:28;;;;;;;12.23;6.55;;;;;;;;;;4394312;32;71681;-60
2023/01/28 01:19:15;;;;;;;10.27;6.37;;;;;;;;;;4382589;32;65816;-60
2023/01/28 01:22:02;;;;;;;10.82;6.40;;;;;;;;;;4394225;32;66790;-60
2023/01/28 01:24:48;;;;;;;10.65;6.75;;;;;;;;;;4383682;32;60476;-60
2023/01/28 01:27:36;;;;;;;9.30;6.28;;;;;;;;;;4395259;32;70585;-60
2023/01/28 01:30:23;;;;;;;11.05;6.53;;;;;;;;;;4394009;32;68403;-62
2023/01/28 01:33:10;;;;;;;10.02;6.53;;;;;;;;;;4394025;32;66654;-61
2023/01/28 01:35:57;;;;;;;11.52;6.45;;;;;;;;;;4395271;32;71659;-61
2023/01/28 01:38:45;;;;;;;10.07;6.30;;;;;;;;;;4404835;32;65925;-62
2023/01/28 01:41:32;;;;;;;;;;;;;;;;;;4394483;32;69804;-61
2023/01/28 01:44:56;;;;;;;10.23;6.25;;;;;;;;;;4372344;32;66181;-63
2023/01/28 01:48:03;;;;;;;11.02;7.03;;;;;;;;;;4382517;32;71511;-61
2023/01/28 01:50:56;;;;;;;10.93;7.07;;;;;;;;;;4393355;32;64804;-62
2023/01/28 01:53:44;;;;;;;10.13;6.90;;;;;;;;;;4382972;32;67546;-61
2023/01/28 01:56:37;;;;;;;9.43;6.03;;;;;;;;;;4382376;32;59895;-61
2023/01/28 01:59:27;;;;;;;9.23;6.32;;;;;;;;;;4393627;32;70433;-61
2023/01/28 02:02:14;;;;;;;9.23;6.60;;;;;;;;;;4374004;32;69003;-60
2023/01/28 02:05:01;;;;;;;12.10;6.30;;;;;;;;;;4383485;32;67671;-61
2023/01/28 02:07:48;;;;;;;;;;;;;;;;;;4384047;32;59306;-63
2023/01/28 02:10:36;;;;;;;9.25;6.35;;;;;;;;;;4383613;32;70217;-61
2023/01/28 02:13:26;;;;;;;10.40;7.12;;;;;;;;;;4394219;32;68482;-61
2023/01/28 02:16:14;;;;;;;9.80;6.82;;;;;;;;;;4371760;32;68355;-61
2023/01/28 02:19:00;;;;;;;;;;;;;;;;;;4383534;32;70868;-63
2023/01/28 02:22:20;;;;;;;10.32;7.20;;;;;;;;;;4383613;32;66163;-62
2023/01/28 02:25:37;;;;;;;9.77;6.80;;;;;;;;;;4372524;32;67651;-60
2023/01/28 02:28:33;;;;;;;11.65;7.45;;;;;;;;;;4382643;32;60604;-61
2023/01/28 02:31:24;;;;;;;10.10;6.78;;;;;;;;;;4384252;32;70508;-61
2023/01/28 02:34:32;;;;;;;12.68;7.07;;;;;;;;;;4383270;32;65962;-61
2023/01/28 02:37:38;;;;;;;10.15;6.50;;;;;;;;;;4387712;32;67038;-61
2023/01/28 02:40:29;;;;;;;10.13;6.72;;;;;;;;;;4388411;32;59757;-61
2023/01/28 02:43:16;;;;;;;10.95;6.90;;;;;;;;;;4399212;32;69354;-61
2023/01/28 02:49:29;;;;;;;10.43;6.65;;;;;;;;;;4382742;32;67583;-62
2023/01/28 02:56:03;;;;;;;10.60;7.43;;;;;;;;;;4383603;32;64998;-62
2023/01/28 02:59:29;;;;;;;10.40;6.85;;;;;;;;;;4383922;32;67886;-61
2023/01/28 03:02:27;;;;;;;9.25;6.28;;;;;;;;;;4371527;32;68218;-61
2023/01/28 03:05:35;;;;;;;10.23;6.47;;;;;;;;;;4382644;32;71780;-60
2023/01/28 03:36:54;;;;;;;10.25;6.35;;;;;;;;;;4382285;32;67735;-62
2023/01/28 03:39:43;;;;;;;9.38;6.57;;;;;;;;;;4383558;32;71778;-62
2023/01/28 03:42:29;;;;;;;;;;;;;;;;;;4393639;32;66148;-60
2023/01/28 03:45:16;;;;;;;10.50;6.62;;;;;;;;;;4372042;32;67653;-61
2023/01/28 03:48:05;;;;;;;11.27;6.90;;;;;;;;;;4382663;32;60164;-61
2023/01/28 03:50:52;;;;;;;;;;;;;;;;;;4381277;32;71267;-61
2023/01/28 03:53:39;;;;;;;9.02;6.50;;;;;;;;;;4371144;32;66924;-61
2023/01/28 03:56:27;;;;;;;10.85;6.57;;;;;;;;;;4383483;32;67550;-61
2023/01/28 03:59:14;;;;;;;11.18;7.00;;;;;;;;;;4382488;32;59306;-61
2023/01/28 04:02:02;;;;;;;10.18;6.07;;;;;;;;;;4382798;32;69550;-67
2023/01/28 04:04:49;;;;;;;10.80;6.28;;;;;;;;;;4370572;32;68847;-62
2023/01/28 04:07:37;;;;;;;11.77;6.90;;;;;;;;;;4382046;32;66767;-61
2023/01/28 04:10:25;;;;;;;10.48;6.57;;;;;;;;;;4392478;32;72019;-62
2023/01/28 04:13:13;;;;;;;13.55;6.75;;;;;;;;;;4370455;32;66635;-62
2023/01/28 04:16:02;;;;;;;12.85;6.93;;;;;;;;;;4381311;32;67227;-61
2023/01/28 04:18:50;;;;;;;11.32;6.87;;;;;;;;;;4381083;32;68088;-61
2023/01/28 04:21:37;;;;;;;11.10;6.60;;;;;;;;;;4381826;32;71338;-62
2023/01/28 04:24:25;;;;;;;12.80;6.47;;;;;;;;;;4370303;32;66680;-61
2023/01/28 04:27:12;;;;;;;10.43;6.85;;;;;;;;;;4392489;32;67436;-60
2023/01/28 04:30:00;;;;;;;10.70;6.62;;;;;;;;;;4392379;32;59283;-62
2023/01/28 04:32:49;;;;;;;10.10;6.75;;;;;;;;;;4381592;32;70587;-62
2023/01/28 04:35:36;;;;;;;9.23;6.35;;;;;;;;;;4392258;32;69297;-61
2023/01/28 04:38:23;;;;;;;13.20;7.00;;;;;;;;;;4392369;32;66622;-62
2023/01/28 04:41:10;;;;;;;10.60;6.90;;;;;;;;;;4381937;32;70835;-62
2023/01/28 04:43:58;;;;;;;11.40;6.72;;;;;;;;;;4381582;32;70516;-61
2023/01/28 04:46:45;;;;;;;10.38;6.20;;;;;;;;;;4381606;32;69335;-61
2023/01/28 04:49:32;;;;;;;9.75;6.32;;;;;;;;;;4381333;32;67587;-62
2023/01/28 04:52:22;;;;;;;9.93;6.57;;;;;;;;;;4381513;32;70787;-61
2023/01/28 04:55:11;;;;;;;12.48;6.80;;;;;;;;;;4370208;32;66985;-61
2023/01/28 04:57:58;;;;;;;10.68;6.60;;;;;;;;;;4359605;32;68007;-61
2023/01/28 05:00:45;;;;;;;10.13;6.03;;;;;;;;;;4392286;32;59231;-61
2023/01/28 05:03:34;;;;;;;9.70;5.97;;;;;;;;;;4369968;32;71825;-62
2023/01/28 05:06:21;;;;;;;9.93;6.12;;;;;;;;;;4370273;32;68889;-62
2023/01/28 05:09:09;;;;;;;10.65;6.68;;;;;;;;;;4381512;32;67582;-63
2023/01/28 05:11:56;;;;;;;9.85;6.50;;;;;;;;;;4381500;32;60360;-63
2023/01/28 05:14:43;;;;;;;10.77;6.43;;;;;;;;;;4369968;32;70929;-62
2023/01/28 05:17:30;;;;;;;10.15;6.75;;;;;;;;;;4382536;32;69494;-61
2023/01/28 05:20:17;;;;;;;9.35;5.90;;;;;;;;;;4381314;32;66680;-61
2023/01/28 05:23:05;;;;;;;10.02;6.65;;;;;;;;;;4380484;32;71382;-63
2023/01/28 05:25:52;;;;;;;9.73;6.25;;;;;;;;;;4380612;32;66902;-62
2023/01/28 05:28:40;;;;;;;9.55;5.93;;;;;;;;;;4381342;32;67895;-62
2023/01/28 05:31:27;;;;;;;8.23;4.70;;;;;;;;;;4382831;32;60097;-62
2023/01/28 05:34:15;;;;;;;8.43;4.65;;;;;;;;;;4381985;32;72033;-62
2023/01/28 05:37:02;;;;;;;9.07;5.60;;;;;;;;;;4382835;32;65775;-61
2023/01/28 05:39:49;;;;;;;8.32;5.12;;;;;;;;;;4383870;32;68123;-61
2023/01/28 05:42:36;;;;;;;7.87;4.57;;;;;;;;;;4394741;32;60512;-61
2023/01/28 05:45:23;;;;;;;7.72;4.90;;;;;;;;;;4383661;32;70510;-60
2023/01/28 05:48:10;;;;;;;7.07;4.35;;;;;;;;;;4394861;32;69328;-61
2023/01/28 05:50:57;;;;;;;10.30;5.15;;;;;;;;;;4372934;32;68233;-62
2023/01/28 05:53:44;;;;;;;7.75;4.57;;;;;;;;;;4386844;32;70766;-60
2023/01/28 05:56:32;;;;;;;8.50;5.00;;;;;;;;;;4396321;32;70608;-61
2023/01/28 05:59:19;;;;;;;8.85;5.25;;;;;;;;;;4385169;32;69450;-62
2023/01/28 06:02:06;;;;;;;7.72;4.65;;;;;;;;;;4382877;32;68387;-63
2023/01/28 06:04:53;;;;;;;8.27;4.55;;;;;;;;;;4372149;32;72213;-63
2023/01/28 06:07:39;;;;;;;7.80;4.65;;;;;;;;;;4384848;32;65043;-62
2023/01/28 06:10:28;;;;;;;8.50;4.85;;;;;;;;;;4373149;32;67694;-62
2023/01/28 06:13:15;;;;;;;9.23;5.72;;;;;;;;;;4385886;32;59303;-62
2023/01/28 06:16:04;;;;;;;9.40;6.07;;;;;;;;;;4372594;32;69265;-64
2023/01/28 06:18:52;;;;;;;9.65;5.68;;;;;;;;;;4383445;32;69630;-63
2023/01/28 06:21:39;;;;;;;10.20;6.20;;;;;;;;;;4382519;32;68975;-63
2023/01/28 06:24:25;;;;;;;10.32;6.07;;;;;;;;;;4384591;32;59146;-64
2023/01/28 06:27:13;;;;;;;10.38;6.25;;;;;;;;;;4372590;32;69637;-62
2023/01/28 06:29:59;;;;;;;10.98;5.95;;;;;;;;;;4382681;32;69161;-65
2023/01/28 06:32:46;;;;;;;10.35;6.35;;;;;;;;;;4361077;32;68326;-63
2023/01/28 06:35:32;;;;;;;9.15;6.22;;;;;;;;;;4393823;32;71919;-62
2023/01/28 06:38:19;;;;;;;8.93;6.28;;;;;;;;;;4383195;32;65031;-62
2023/01/28 06:41:06;;;;;;;8.68;5.78;;;;;;;;;;4382947;32;66885;-63
2023/01/28 06:43:53;;;;;;;12.37;6.22;;;;;;;;;;4361111;32;60632;-63
2023/01/28 06:46:40;;;;;;;9.90;5.95;;;;;;;;;;4382173;32;72250;-61
2023/01/28 06:49:26;;;;;;;10.05;6.10;;;;;;;;;;4382770;32;65921;-62
2023/01/28 06:52:13;;;;;;;;;;;;;;;;;;4372495;32;67747;-62
2023/01/28 06:55:00;;;;;;;11.23;6.10;;;;;;;;;;4383059;32;59551;-62
2023/01/28 06:57:47;;;;;;;9.48;5.82;;;;;;;;;;4382568;32;71111;-61
2023/01/28 07:00:34;;;;;;;6.78;3.87;;;;;;;;;;4382814;32;69524;-63
2023/01/28 07:03:20;;;;;;;;;;;;;;;;;;4382368;32;67777;-62
2023/01/28 07:06:07;;;;;;;6.47;4.10;;;;;;;;;;4384155;32;71736;-61
2023/01/28 07:08:53;;;;;;;11.52;6.65;;;;;;;;;;4371750;32;66469;-62
2023/01/28 07:11:40;;;;;;;10.00;6.03;;;;;;;;;;4371516;32;68955;-63
2023/01/28 07:14:27;;;;;;;10.73;5.68;;;;;;;;;;4381765;32;68062;-61
2023/01/28 07:17:13;;;;;;;11.05;6.25;;;;;;;;;;4360478;32;72205;-63
2023/01/28 07:20:00;;;;;;;8.65;5.65;;;;;;;;;;4372140;32;65734;-61
2023/01/28 07:22:47;;;;;;;9.32;5.70;;;;;;;;;;4371420;32;68320;-62
2023/01/28 07:25:33;;;;;;;10.15;5.75;;;;;;;;;;4382900;32;59251;-62
2023/01/28 07:28:20;;;;;;;10.85;6.05;;;;;;;;;;4381820;32;71107;-62
2023/01/28 07:31:06;;;;;;;8.35;5.70;;;;;;;;;;4371664;32;69584;-62
2023/01/28 07:33:53;;;;;;;11.27;6.30;;;;;;;;;;4381889;32;68360;-62
2023/01/28 07:36:39;;;;;;;10.35;5.47;;;;;;;;;;4384104;32;59132;-60
2023/01/28 07:39:26;;;;;;;8.77;5.72;;;;;;;;;;4382188;32;70533;-62
2023/01/28 07:42:13;;;;;;;9.63;5.82;;;;;;;;;;4382214;32;68574;-62
2023/01/28 07:45:05;;;;;;;10.80;6.28;;;;;;;;;;4383524;32;66895;-62
2023/01/28 07:47:56;;;;;;;9.55;5.90;;;;;;;;;;4382071;32;71594;-62
2023/01/28 07:50:43;;;;;;;9.68;5.87;;;;;;;;;;4381395;32;65877;-63
2023/01/28 07:53:29;;;;;;;10.15;6.22;;;;;;;;;;4383376;32;66894;-63
2023/01/28 07:56:16;;;;;;;;;;;;;;;;;;4382568;32;60404;-63
2023/01/28 07:59:03;;;;;;;9.75;6.10;;;;;;;;;;4370574;32;70620;-62
2023/01/28 08:01:49;;;;;;;9.60;5.82;;;;;;;;;;4371475;32;64972;-63
2023/01/28 08:04:39;;;;;;;10.73;6.50;;;;;;;;;;4371238;32;68106;-63
2023/01/28 08:07:26;;;;;;;10.65;6.05;;;;;;;;;;4382182;32;60182;-62
2023/01/28 08:10:13;;;;;;;9.68;6.12;;;;;;;;;;4381324;32;70461;-64
2023/01/28 08:13:00;;;;;;;11.48;6.85;;;;;;;;;;4370381;32;69163;-61
2023/01/28 08:15:47;;;;;;;9.95;6.00;;;;;;;;;;4392577;32;67650;-62
2023/01/28 08:18:34;;;;;;;9.93;5.43;;;;;;;;;;4393901;32;71023;-62
2023/01/28 08:21:20;;;;;;;9.15;6.18;;;;;;;;;;4392974;32;65726;-62
2023/01/28 08:24:07;;;;;;;;;;;;;;;;;;4382577;32;69693;-64
2023/01/28 08:26:54;;;;;;;9.18;5.45;;;;;;;;;;4382099;32;67909;-62
2023/01/28 08:29:40;;;;;;;9.57;5.93;;;;;;;;;;4371078;32;71440;-62
2023/01/28 08:32:29;;;;;;;12.18;6.60;;;;;;;;;;4385035;32;64754;-63
2023/01/28 08:35:17;;;;;;;10.43;5.97;;;;;;;;;;4384098;32;67419;-64
2023/01/28 08:38:06;;;;;;;12.13;6.47;;;;;;;;;;4372780;32;59163;-63
2023/01/28 08:40:55;;;;;;;9.27;6.03;;;;;;;;;;4359418;32;71432;-64
2023/01/28 08:43:42;;;;;;;9.85;6.07;;;;;;;;;;4383945;32;68362;-63
2023/01/28 08:46:28;;;;;;;10.98;6.10;;;;;;;;;;4386784;32;66803;-63
2023/01/28 08:49:15;;;;;;;;;;;;;;;;;;4386182;32;60962;-63
2023/01/28 08:52:01;;;;;;;8.73;5.35;;;;;;;;;;4375494;32;69318;-65
2023/01/28 08:54:48;;;;;;;9.57;5.65;;;;;;;;;;4376841;32;70309;-61
2023/01/28 08:57:35;;;;;;;9.98;6.05;;;;;;;;;;4372828;32;68053;-62
2023/01/28 09:00:22;;;;;;;;;;;;;;;;;;4381820;32;71699;-63
2023/01/28 09:03:08;;;;;;;10.95;5.87;;;;;;;;;;4382444;32;66099;-62
2023/01/28 09:06:01;;;;;;;10.90;6.20;;;;;;;;;;4370839;32;67166;-62
2023/01/28 09:08:47;;;;;;;8.05;5.60;;;;;;;;;;4392163;32;59369;-62
2023/01/28 09:11:34;;;;;;;9.50;5.40;;;;;;;;;;4383472;32;70528;-62
2023/01/28 09:14:21;;;;;;;9.85;6.07;;;;;;;;;;4384733;32;65617;-62
2023/01/28 09:17:08;;;;;;;8.05;5.72;;;;;;;;;;4372958;32;68956;-62
2023/01/28 09:19:54;;;;;;;;;;;;;;;;;;4395699;32;59039;-62
2023/01/28 09:22:41;;;;;;;9.88;5.37;;;;;;;;;;4372868;32;70009;-62
2023/01/28 09:25:28;;;;;;;8.40;5.50;;;;;;;;;;4384217;32;68415;-63
2023/01/28 09:28:15;;;;;;;10.18;6.22;;;;;;;;;;4373716;32;67583;-62
2023/01/28 09:31:12;;;;;;;10.43;6.45;;;;;;;;;;4373065;32;71541;-63
2023/01/28 09:33:58;;;;;;;10.40;6.03;;;;;;;;;;4385025;32;64931;-61
2023/01/28 09:36:45;;;;;;;9.00;5.87;;;;;;;;;;4384138;32;67418;-62
2023/01/28 09:39:32;;;;;;;10.57;6.20;;;;;;;;;;4383152;32;67380;-62
2023/01/28 09:42:41;;;;;;;9.05;5.75;;;;;;;;;;4384895;32;71818;-62
2023/01/28 09:45:38;;;;;;;10.00;6.43;;;;;;;;;;4383039;32;66648;-62
2023/01/28 09:48:33;;;;;;;8.48;5.93;;;;;;;;;;4383744;32;67005;-61
2023/01/28 09:51:41;;;;;;;9.10;6.00;;;;;;;;;;4383343;32;58828;-62
2023/01/28 09:54:48;;;;;;;10.02;6.20;;;;;;;;;;4372320;32;70939;-62
2023/01/28 09:57:49;;;;;;;10.50;6.03;;;;;;;;;;4384799;32;68517;-62
2023/01/28 10:01:04;;;;;;;10.52;6.25;;;;;;;;;;4382865;32;68226;-63
2023/01/28 10:03:54;;;;;;;9.30;5.95;;;;;;;;;;4394474;32;71676;-61
2023/01/28 10:06:55;;;;;;;8.82;5.70;;;;;;;;;;4372161;32;71156;-62
2023/01/28 10:09:56;;;;;;;10.35;6.37;;;;;;;;;;4383732;32;68461;-62
2023/01/28 10:13:10;;;;;;;11.05;5.95;;;;;;;;;;4361329;32;67322;-61
2023/01/28 10:16:13;;;;;;;12.85;6.32;;;;;;;;;;4383176;32;72080;-62
2023/01/28 10:19:06;;;;;;;9.05;6.03;;;;;;;;;;4383155;32;66168;-62
2023/01/28 10:21:57;;;;;;;9.88;5.87;;;;;;;;;;4372447;32;66989;-61
2023/01/28 10:25:00;;;;;;;8.77;5.87;;;;;;;;;;4361298;32;60889;-62
2023/01/28 10:27:48;;;;;;;10.27;5.82;;;;;;;;;;4383192;32;70423;-62
2023/01/28 10:30:45;;;;;;;9.60;6.05;;;;;;;;;;4393786;32;68454;-61
2023/01/28 10:33:41;;;;;;;8.65;5.85;;;;;;;;;;4393936;32;67901;-62
2023/01/28 10:36:29;;;;;;;10.90;6.05;;;;;;;;;;4372667;32;59224;-63
2023/01/28 10:39:17;;;;;;;9.13;6.07;;;;;;;;;;4384447;32;69619;-63
2023/01/28 10:42:16;;;;;;;10.95;6.07;;;;;;;;;;4382953;32;68893;-62
2023/01/28 10:45:19;;;;;;;9.73;6.20;;;;;;;;;;4382294;32;68181;-62
2023/01/28 10:48:15;;;;;;;9.20;6.20;;;;;;;;;;4371185;32;72208;-63
2023/01/28 10:51:04;;;;;;;10.23;6.03;;;;;;;;;;4371882;32;64961;-62
2023/01/28 10:53:51;;;;;;;8.82;5.87;;;;;;;;;;4382878;32;67907;-62
2023/01/28 10:56:37;;;;;;;10.85;6.37;;;;;;;;;;4393530;32;67505;-61
2023/01/28 10:59:35;;;;;;;10.27;6.40;;;;;;;;;;4393183;32;70982;-62
2023/01/28 11:02:31;;;;;;;;;;;;;;;;;;4371886;32;66438;-63
2023/01/28 11:05:20;;;;;;;9.98;6.03;;;;;;;;;;4371569;32;67784;-61
2023/01/28 11:08:17;;;;;;;10.20;5.95;;;;;;;;;;4382855;32;59408;-61
2023/01/28 11:11:14;;;;;;;10.57;6.40;;;;;;;;;;4360301;32;71735;-62
2023/01/28 11:14:01;;;;;;;11.55;6.50;;;;;;;;;;4393013;32;68399;-62
2023/01/28 11:16:48;;;;;;;;;;;;;;;;;;4384413;32;66737;-64
2023/01/28 11:19:35;;;;;;;9.63;5.72;;;;;;;;;;4371634;32;72583;-62
2023/01/28 11:22:27;;;;;;;11.32;6.47;;;;;;;;;;4383499;32;70595;-63
2023/01/28 11:25:33;;;;;;;9.63;5.90;;;;;;;;;;4383702;32;68218;-62
2023/01/28 11:28:21;;;;;;;10.55;5.12;;;;;;;;;;4371720;32;67618;-61
2023/01/28 11:31:10;;;;;;;9.40;5.95;;;;;;;;;;4383648;32;72127;-62
2023/01/28 11:34:00;;;;;;;11.02;6.10;;;;;;;;;;4371043;32;65030;-62
2023/01/28 11:36:52;;;;;;;9.90;5.53;;;;;;;;;;4381926;32;68641;-61
2023/01/28 11:39:38;;;;;;;10.20;6.45;;;;;;;;;;4382084;32;60955;-62
2023/01/28 11:42:25;;;;;;;10.88;6.20;;;;;;;;;;4393051;32;70577;-62
2023/01/28 11:45:16;;;;;;;11.00;5.93;;;;;;;;;;4371283;32;68783;-62
2023/01/28 11:48:31;;;;;;;9.25;5.60;;;;;;;;;;4371974;32;67944;-62
2023/01/28 11:51:37;;;;;;;9.77;5.82;;;;;;;;;;4381785;32;60151;-61
2023/01/28 11:54:48;;;;;;;10.40;5.97;;;;;;;;;;4382139;32;69580;-62
2023/01/28 11:57:40;;;;;;;9.65;5.53;;;;;;;;;;4371421;32;68500;-61
2023/01/28 12:00:30;;;;;;;11.32;6.20;;;;;;;;;;4370837;32;68996;-63
2023/01/28 12:03:19;;;;;;;11.98;6.57;;;;;;;;;;4382025;32;70437;-61
2023/01/28 12:06:30;;;;;;;8.95;5.78;;;;;;;;;;4381854;32;65852;-61
2023/01/28 12:09:53;;;;;;;9.80;6.00;;;;;;;;;;4381785;32;67182;-63
2023/01/28 12:13:02;;;;;;;9.40;5.80;;;;;;;;;;4379801;32;60153;-63
2023/01/28 12:16:00;;;;;;;10.02;5.90;;;;;;;;;;4382103;32;71622;-63
2023/01/28 12:19:04;;;;;;;;;;;;;;;;;;4383439;32;65895;-63
2023/01/28 12:22:35;;;;;;;10.73;6.03;;;;;;;;;;4383291;32;68282;-62
2023/01/28 12:25:28;;;;;;;10.77;6.30;;;;;;;;;;4362329;32;59936;-62
2023/01/28 12:28:20;;;;;;;11.25;5.70;;;;;;;;;;4370413;32;71174;-61
2023/01/28 12:31:26;;;;;;;8.88;5.53;;;;;;;;;;4359973;32;69775;-62
2023/01/28 12:34:31;;;;;;;12.05;6.35;;;;;;;;;;4381663;32;66843;-62
2023/01/28 12:38:05;;;;;;;10.25;5.95;;;;;;;;;;4382619;32;70803;-62
2023/01/28 12:41:13;;;;;;;10.73;5.80;;;;;;;;;;4353164;32;66399;-62
2023/01/28 12:44:08;;;;;;;10.45;5.65;;;;;;;;;;4381542;32;68254;-62
2023/01/28 12:47:01;;;;;;;11.18;6.00;;;;;;;;;;4392001;32;67472;-61
2023/01/28 12:49:57;;;;;;;9.57;5.87;;;;;;;;;;4381103;32;71909;-63
2023/01/28 12:52:51;;;;;;;10.18;5.62;;;;;;;;;;4381462;32;64956;-62
2023/01/28 12:55:48;;;;;;;9.43;5.72;;;;;;;;;;4369923;32;68551;-61
2023/01/28 12:58:50;;;;;;;10.50;5.90;;;;;;;;;;4381844;32;59209;-62
2023/01/28 13:02:00;;;;;;;10.32;6.15;;;;;;;;;;4380628;32;71525;-61
2023/01/28 13:05:08;;;;;;;8.75;5.15;;;;;;;;;;4382876;32;69603;-62
2023/01/28 13:08:03;;;;;;;8.50;5.03;;;;;;;;;;4381603;32;67525;-62
2023/01/28 13:10:51;;;;;;;9.82;5.57;;;;;;;;;;4381542;32;59194;-62
2023/01/28 13:13:42;;;;;;;10.73;5.55;;;;;;;;;;4380696;32;70356;-62
2023/01/28 13:16:29;;;;;;;9.57;4.87;;;;;;;;;;4370627;32;69705;-61
2023/01/28 13:19:19;;;;;;;11.05;5.12;;;;;;;;;;4370527;32;68185;-62
2023/01/28 13:22:32;;;;;;;7.90;4.78;;;;;;;;;;4371673;32;70862;-62
2023/01/28 13:25:26;;;;;;;7.87;5.07;;;;;;;;;;4371894;32;65885;-62
2023/01/28 13:28:28;;;;;;;8.43;4.78;;;;;;;;;;4372013;32;68586;-62
2023/01/28 13:31:17;;;;;;;9.45;4.68;;;;;;;;;;4371121;32;60341;-62
2023/01/28 13:34:05;;;;;;;9.23;5.10;;;;;;;;;;4380938;32;71657;-63
2023/01/28 13:36:52;;;;;;;7.18;4.18;;;;;;;;;;4392017;32;65755;-61
2023/01/28 13:39:39;;;;;;;8.60;4.70;;;;;;;;;;4382507;32;67574;-62
2023/01/28 13:42:26;;;;;;;;;;;;;;;;;;4382037;32;60376;-63
2023/01/28 13:45:15;;;;;;;9.93;5.15;;;;;;;;;;4381408;32;69350;-62
2023/01/28 13:48:48;;;;;;;9.32;5.15;;;;;;;;;;4369851;32;69814;-62
2023/01/28 13:51:37;;;;;;;8.32;4.90;;;;;;;;;;4334539;32;67460;-62
2023/01/28 13:54:24;;;;;;;8.77;5.25;;;;;;;;;;4369509;32;72818;-62
2023/01/28 13:57:30;;;;;;;9.40;5.32;;;;;;;;;;4381745;32;65893;-62
2023/01/28 14:00:23;;;;;;;8.05;4.95;;;;;;;;;;4372551;32;70039;-61
2023/01/28 14:03:13;;;;;;;8.73;5.12;;;;;;;;;;4362630;32;65468;-62
2023/01/28 14:06:35;;;;;;;8.05;5.22;;;;;;;;;;4383722;32;71942;-62
2023/01/28 14:09:58;;;;;;;8.85;5.32;;;;;;;;;;4383345;32;64905;-63
2023/01/28 14:12:50;;;;;;;7.68;5.25;;;;;;;;;;4383315;32;67848;-62
2023/01/28 14:15:36;;;;;;;9.95;5.72;;;;;;;;;;4383730;32;60307;-62
2023/01/28 14:18:38;;;;;;;8.77;4.80;;;;;;;;;;4371997;32;70284;-62
2023/01/28 14:21:27;;;;;;;7.65;4.65;;;;;;;;;;4372624;32;69515;-62
2023/01/28 14:24:17;;;;;;;10.18;5.00;;;;;;;;;;4394077;32;67827;-62
2023/01/28 14:27:27;;;;;;;9.10;4.90;;;;;;;;;;4394126;32;59462;-61
2023/01/28 14:30:43;;;;;;;7.95;4.97;;;;;;;;;;4384413;32;68731;-62
2023/01/28 14:33:31;;;;;;;9.45;5.65;;;;;;;;;;4372599;32;69296;-62
2023/01/28 14:36:18;;;;;;;9.25;5.40;;;;;;;;;;4382752;32;68731;-62
2023/01/28 14:39:11;;;;;;;9.85;5.30;;;;;;;;;;4384382;32;71002;-62
2023/01/28 14:42:02;;;;;;;8.98;5.22;;;;;;;;;;4371614;32;67138;-61
2023/01/28 14:45:11;;;;;;;9.07;5.30;;;;;;;;;;4371940;32;68303;-62
2023/01/28 14:48:25;;;;;;;8.02;5.22;;;;;;;;;;4384544;32;59184;-62
2023/01/28 14:51:31;;;;;;;9.38;5.70;;;;;;;;;;4371045;32;71815;-61
2023/01/28 14:54:26;;;;;;;9.20;5.28;;;;;;;;;;4372292;32;64905;-62
2023/01/28 14:57:44;;;;;;;8.27;4.32;;;;;;;;;;4371614;32;68343;-62
2023/01/28 15:00:32;;;;;;;8.85;5.18;;;;;;;;;;4371981;32;59889;-61
2023/01/28 15:03:19;;;;;;;9.23;4.95;;;;;;;;;;4382995;32;70581;-63
2023/01/28 15:06:20;;;;;;;8.10;4.70;;;;;;;;;;4371908;32;69966;-62
2023/01/28 15:09:11;;;;;;;7.80;4.60;;;;;;;;;;4372038;32;67803;-62
2023/01/28 15:11:58;;;;;;;9.32;5.47;;;;;;;;;;4371443;32;72271;-61
2023/01/28 15:14:45;;;;;;;8.27;5.15;;;;;;;;;;4382723;32;65927;-63
2023/01/28 15:17:31;;;;;;;8.52;5.30;;;;;;;;;;4384085;32;67097;-61
2023/01/28 15:20:19;;;;;;;;;;;;;;;;;;4384449;32;67589;-62
2023/01/28 15:23:05;;;;;;;;;;;;;;;;;;4383011;32;71792;-62
2023/01/28 15:25:54;;;;;;;;;;;;;;;;;;4371999;32;66293;-63
2023/01/28 15:28:41;;;;;;;;;;;;;;;;;;4383341;32;67164;-64
2023/01/28 15:31:29;;;;;;;;;;;;;;;;;;4372727;32;59830;-62
2023/01/28 15:34:17;;;;;;;;;;;;;;;;;;4382060;32;68723;-62
2023/01/28 15:37:04;;;;;;;;;;;;;;;;;;4371644;32;69868;-62
2023/01/28 15:40:00;;;;;;;;;;;;;;;;;;4371563;32;68192;-63
2023/01/28 15:42:47;;;;;;;;;;;;;;;;;;4383367;32;59479;-63
2023/01/28 15:45:33;;;;;;;;;;;;;;;;;;4372145;32;69879;-62
2023/01/28 15:48:20;;;;;;;;;;;;;;;;;;4372132;32;69582;-62
2023/01/28 15:51:07;;;;;;;;;;;;;;;;;;4371754;32;67781;-63
2023/01/28 15:53:58;;;;;;;;;;;;;;;;;;4382617;32;72190;-64
2023/01/28 15:56:44;;;;;;;;;;;;;;;;;;4382967;32;65967;-63
2023/01/28 15:59:31;;;;;;;;;;;;;;;;;;4382695;32;67107;-61
2023/01/28 16:02:21;;;;;;;;;;;;;;;;;;4371997;32;57758;-62
2023/01/28 16:05:22;;;;;;;;;;;;;;;;;;4384111;32;69900;-62
2023/01/28 16:08:10;;;;;;;;;;;;;;;;;;4371895;32;66047;-63
2023/01/28 16:10:57;;;;;;;;;;;;;;;;;;4371690;32;66997;-63
2023/01/28 16:13:43;;;;;;;;;;;;;;;;;;4382769;32;59791;-63
2023/01/28 16:16:33;;;;;;;;;;;;;;;;;;4382638;32;70266;-64
2023/01/28 16:19:39;;;;;;;;;;;;;;;;;;4372071;32;69334;-63
2023/01/28 16:22:33;;;;;;;;;;;;;;;;;;4382835;32;67873;-63
2023/01/28 16:25:26;;;;;;;;;;;;;;;;;;4382637;32;70970;-63
2023/01/28 16:28:16;;;;;;;;;;;;;;;;;;4384473;32;65518;-63
2023/01/28 16:31:04;;;;;;;;;;;;;;;;;;4374157;32;66996;-63
2023/01/28 16:33:51;;;;;;;;;;;;;;;;;;4372514;32;68560;-62
2023/01/28 16:36:37;;;;;;;;;;;;;;;;;;4386333;32;71669;-62
2023/01/28 16:39:24;;;;;;;;;;;;;;;;;;4382824;32;66222;-62
2023/01/28 16:42:10;;;;;;;;;;;;;;;;;;4384009;32;67623;-63
2023/01/28 16:44:56;;;;;;;;;;;;;;;;;;4383766;32;58818;-63
2023/01/28 16:47:43;;;;;;;;;;;;;;;;;;4382632;32;69166;-62
2023/01/28 16:50:30;;;;;;;;;;;;;;;;;;4371246;32;69088;-62
2023/01/28 16:53:20;;;;;;;;;;;;;;;;;;4371497;32;67167;-63
2023/01/28 16:56:08;;;;;;;;;;;;;;;;;;4371294;32;72340;-64
2023/01/28 16:58:54;;;;;;;;;;;;;;;;;;4371164;32;71010;-63
2023/01/28 17:01:42;;;;;;;;;;;;;;;;;;4371546;32;69503;-63
2023/01/28 17:04:28;;;;;;;;;;;;;;;;;;4371637;32;67418;-62
2023/01/28 17:07:15;;;;;;;;;;;;;;;;;;4381454;32;71769;-63
2023/01/28 17:10:01;;;;;;;;;;;;;;;;;;4371300;32;66322;-62
2023/01/28 17:12:48;;;;;;;;;;;;;;;;;;4381195;32;68818;-62
2023/01/28 17:15:35;;;;;;;;;;;;;;;;;;4370770;32;60083;-62
2023/01/28 17:18:21;;;;;;;;;;;;;;;;;;4359947;32;70692;-62
2023/01/28 17:21:07;;;;;;;;;;;;;;;;;;4371080;32;68752;-62
2023/01/28 17:23:51;;;;;;;;;;;;;;;;;;3847881;37;43649;-63
2023/01/28 17:26:37;;;;;;;;;;;;;;;;;;4386091;32;60702;-62
2023/01/28 17:29:24;;;;;;;;;;;;;;;;;;4399561;32;70034;-63
2023/01/28 17:32:10;;;;;;;;;;;;;;;;;;4399695;32;69488;-62
2023/01/28 17:34:57;;;;;;;;;;;;;;;;;;4411572;32;67950;-63
2023/01/28 17:37:43;;;;;;;;;;;;;;;;;;4389317;32;72068;-63
2023/01/28 17:40:29;;;;;;;;;;;;;;;;;;4400316;32;65934;-62
2023/01/28 17:43:16;;;;;;;;;;;;;;;;;;4396662;32;66978;-62
2023/01/28 17:46:08;;;;;;;;;;;;;;;;;;4411587;32;58850;-62
2023/01/28 17:48:55;;;;;;;;;;;;;;;;;;4377879;32;71939;-63
2023/01/28 17:51:41;;;;;;;;;;;;;;;;;;4399269;32;65330;-63
2023/01/28 17:54:27;;;;;;;;;;;;;;;;;;4394640;32;66687;-62
2023/01/28 17:57:14;;;;;;;;;;;;;;;;;;4394998;32;59753;-64
2023/01/28 18:00:01;;;;;;;;;;;;;;;;;;4394538;32;69996;-62
2023/01/28 18:02:51;;;;;;;;;;;;;;;;;;4395873;32;68693;-62
2023/01/28 18:05:38;;;;;;;;;;;;;;;;;;4384115;32;66964;-62
2023/01/28 18:08:24;;;;;;;;;;;;;;;;;;4394395;32;71871;-63